Time;durP1;ratioP1;P1;durP2;ratioP2;P2;SDS_P1;SDS_P2;PMS_P1;PMS_P2;Temp;Humidity;BMP_temperature;BMP_pressure;BME280_temperature;BME280_humidity;BME280_pressure;Samples;Min_cycle;Max_cycle;Signal;HPM_P1;HPM_P2
2023/12/28 00:02:42;;;;;;;6.20;3.80;;;9.30;69.20;;;;;;5059079;28;20515;-75
2023/12/28 00:05:29;;;;;;;5.37;3.27;;;9.30;70.50;;;;;;5056265;28;20486;-75
2023/12/28 00:08:14;;;;;;;8.13;4.10;;;9.30;67.70;;;;;;5052050;28;20443;-75
2023/12/28 00:11:01;;;;;;;13.13;4.03;;;9.40;66.30;;;;;;5045151;28;20956;-75
2023/12/28 00:13:50;;;;;;;6.03;3.70;;;9.40;67.50;;;;;;5052611;28;20489;-77
2023/12/28 00:16:37;;;;;;;5.97;3.90;;;9.40;63.90;;;;;;5052447;28;20466;-75
2023/12/28 00:19:23;;;;;;;6.53;3.70;;;9.40;63.90;;;;;;5052923;28;20492;-75
2023/12/28 00:22:08;;;;;;;7.03;3.80;;;9.50;60.60;;;;;;5055991;28;20434;-76
2023/12/28 00:24:54;;;;;;;8.30;4.47;;;9.60;58.50;;;;;;5051772;28;20558;-74
2023/12/28 00:27:41;;;;;;;5.63;3.90;;;9.70;54.70;;;;;;5061817;28;20423;-75
2023/12/28 00:30:27;;;;;;;9.27;4.57;;;9.60;59.50;;;;;;5060150;28;21100;-76
2023/12/28 00:33:13;;;;;;;6.73;3.50;;;9.60;56.70;;;;;;5060220;28;20774;-76
2023/12/28 00:35:59;;;;;;;6.90;4.00;;;9.60;58.20;;;;;;5046338;28;20426;-76
2023/12/28 00:38:45;;;;;;;6.47;4.80;;;9.50;56.20;;;;;;5054850;28;21105;-75
2023/12/28 00:41:30;;;;;;;5.97;4.10;;;9.40;59.30;;;;;;5053525;28;21009;-76
2023/12/28 00:44:17;;;;;;;6.50;4.03;;;9.30;56.30;;;;;;5053636;28;20459;-77
2023/12/28 00:47:03;;;;;;;4.40;3.53;;;9.40;59.30;;;;;;5049049;28;20505;-75
2023/12/28 00:49:48;;;;;;;7.80;3.50;;;9.30;57.70;;;;;;5051392;28;21050;-75
2023/12/28 00:52:34;;;;;;;5.47;3.63;;;9.30;60.60;;;;;;5060639;28;20450;-76
2023/12/28 00:55:20;;;;;;;6.30;4.23;;;9.30;56.10;;;;;;5054796;28;20529;-77
2023/12/28 00:58:06;;;;;;;5.87;4.10;;;9.30;50.80;;;;;;5053221;28;20453;-76
2023/12/28 01:00:55;;;;;;;6.40;4.10;;;9.40;53.90;;;;;;5046908;28;20478;-74
2023/12/28 01:03:41;;;;;;;6.57;4.07;;;9.40;52.20;;;;;;5046979;28;20470;-75
2023/12/28 01:06:28;;;;;;;4.93;3.53;;;9.50;52.80;;;;;;5050326;28;20443;-75
2023/12/28 01:09:14;;;;;;;5.23;4.00;;;9.50;51.40;;;;;;5051994;28;20507;-76
2023/12/28 01:12:00;;;;;;;7.77;4.33;;;9.50;47.30;;;;;;5055839;28;20435;-74
2023/12/28 01:14:45;;;;;;;6.40;3.67;;;9.60;48.70;;;;;;5055359;28;20488;-74
2023/12/28 01:17:33;;;;;;;6.10;4.23;;;9.70;47.00;;;;;;5056234;28;20523;-74
2023/12/28 01:20:18;;;;;;;7.93;4.43;;;9.70;48.70;;;;;;5054900;28;20463;-74
2023/12/28 01:23:04;;;;;;;6.53;3.83;;;9.70;47.40;;;;;;5050976;28;20430;-74
2023/12/28 01:25:50;;;;;;;9.37;3.90;;;9.80;43.60;;;;;;5055794;28;20784;-74
2023/12/28 01:28:35;;;;;;;6.37;3.73;;;9.80;47.90;;;;;;5065087;28;20789;-74
2023/12/28 01:31:21;;;;;;;6.30;3.83;;;9.80;44.70;;;;;;5061178;28;20521;-74
2023/12/28 01:34:09;;;;;;;6.30;4.57;;;9.80;45.20;;;;;;5060318;28;20518;-74
2023/12/28 01:36:54;;;;;;;5.70;3.50;;;9.80;46.00;;;;;;5057502;28;20429;-74
2023/12/28 01:39:40;;;;;;;7.13;3.90;;;9.80;46.00;;;;;;5068393;28;20484;-74
2023/12/28 01:42:26;;;;;;;10.87;3.87;;;9.80;45.50;;;;;;5063833;28;20446;-74
2023/12/28 01:45:12;;;;;;;7.93;4.20;;;9.80;44.00;;;;;;5062263;28;20451;-74
2023/12/28 01:48:00;;;;;;;6.33;4.40;;;9.80;47.80;;;;;;5054832;28;20545;-74
2023/12/28 01:50:47;;;;;;;9.80;3.70;;;9.80;47.20;;;;;;5056329;28;20450;-74
2023/12/28 01:53:33;;;;;;;6.10;3.53;;;9.90;43.90;;;;;;5060553;28;20448;-74
2023/12/28 01:56:20;;;;;;;9.67;4.03;;;9.90;47.10;;;;;;5054422;28;20491;-74
2023/12/28 01:59:07;;;;;;;5.23;3.13;;;9.90;46.20;;;;;;5052351;28;20451;-74
2023/12/28 02:01:52;;;;;;;5.30;4.03;;;10.00;44.10;;;;;;5047484;28;21002;-75
2023/12/28 02:04:38;;;;;;;6.07;3.90;;;10.10;46.40;;;;;;5052381;28;20433;-75
2023/12/28 02:07:26;;;;;;;6.00;3.70;;;10.10;44.40;;;;;;5057601;28;20965;-75
2023/12/28 02:10:12;;;;;;;5.43;3.87;;;10.20;43.10;;;;;;5053918;28;20741;-75
2023/12/28 02:12:58;;;;;;;8.40;4.30;;;10.20;42.80;;;;;;5049409;28;20431;-75
2023/12/28 02:15:47;;;;;;;6.93;4.40;;;10.30;40.10;;;;;;5059874;28;20544;-75
2023/12/28 02:18:39;;;;;;;5.80;3.90;;;10.40;40.90;;;;;;5057586;28;20439;-74
2023/12/28 02:21:26;;;;;;;5.90;3.73;;;10.40;41.50;;;;;;5060778;28;20482;-74
2023/12/28 02:24:12;;;;;;;5.67;3.53;;;10.40;41.90;;;;;;5057563;28;20477;-74
2023/12/28 02:26:59;;;;;;;5.07;3.30;;;10.40;41.70;;;;;;5054510;28;20423;-74
2023/12/28 02:29:45;;;;;;;5.13;3.23;;;10.50;40.40;;;;;;5051463;28;20492;-75
2023/12/28 02:32:41;;;;;;;4.97;3.60;;;10.40;40.10;;;;;;5059969;28;20454;-75
2023/12/28 02:35:32;;;;;;;5.87;3.10;;;10.50;38.70;;;;;;5050867;28;20439;-74
2023/12/28 02:38:19;;;;;;;8.93;3.03;;;10.50;38.80;;;;;;5055229;28;20454;-75
2023/12/28 02:41:06;;;;;;;7.57;3.93;;;10.60;38.00;;;;;;5056000;28;21111;-74
2023/12/28 02:43:53;;;;;;;5.87;3.50;;;10.50;37.10;;;;;;5057559;28;20457;-75
2023/12/28 02:46:38;;;;;;;4.67;3.10;;;10.50;37.90;;;;;;5052759;28;20807;-74
2023/12/28 02:49:24;;;;;;;4.93;3.20;;;10.50;39.00;;;;;;5057192;28;20462;-75
2023/12/28 02:52:10;;;;;;;4.60;3.60;;;10.50;39.50;;;;;;5052323;28;20668;-74
2023/12/28 02:54:56;;;;;;;5.17;3.40;;;10.40;39.70;;;;;;5050072;28;20496;-75
2023/12/28 02:57:42;;;;;;;4.13;3.33;;;10.40;40.50;;;;;;5049698;28;20503;-75
2023/12/28 03:00:29;;;;;;;9.00;3.50;;;10.40;42.00;;;;;;5056256;28;20947;-75
2023/12/28 03:03:14;;;;;;;6.90;3.30;;;10.40;42.60;;;;;;5058440;28;20518;-75
2023/12/28 03:06:00;;;;;;;9.10;3.33;;;10.40;40.50;;;;;;5049736;28;20503;-74
2023/12/28 03:08:46;;;;;;;7.03;3.57;;;10.50;43.20;;;;;;5053672;28;20490;-75
2023/12/28 03:11:32;;;;;;;5.50;3.40;;;10.40;43.10;;;;;;5059514;28;20991;-75
2023/12/28 03:14:17;;;;;;;5.90;3.53;;;10.40;46.90;;;;;;5057616;28;20450;-74
2023/12/28 03:17:05;;;;;;;6.27;3.57;;;10.40;50.40;;;;;;5047247;28;20457;-75
2023/12/28 03:19:50;;;;;;;7.43;4.00;;;10.40;50.40;;;;;;5051573;28;20640;-74
2023/12/28 03:22:36;;;;;;;6.60;3.83;;;10.30;46.00;;;;;;5060467;28;20447;-75
2023/12/28 03:25:22;;;;;;;4.47;3.30;;;10.30;48.10;;;;;;5060126;28;20466;-74
2023/12/28 03:28:07;;;;;;;6.60;3.43;;;10.30;45.00;;;;;;5059717;28;20449;-74
2023/12/28 03:30:53;;;;;;;6.10;3.80;;;10.30;52.90;;;;;;5057674;28;20570;-74
2023/12/28 03:33:40;;;;;;;4.90;3.00;;;10.30;53.10;;;;;;5058708;28;21067;-75
2023/12/28 03:36:25;;;;;;;4.83;3.00;;;10.30;57.50;;;;;;5075017;28;20458;-75
2023/12/28 03:39:11;;;;;;;14.80;4.20;;;10.20;59.80;;;;;;5055026;28;20534;-75
2023/12/28 03:41:57;;;;;;;7.53;3.80;;;10.20;56.00;;;;;;5046568;28;20478;-74
2023/12/28 03:44:43;;;;;;;4.53;3.33;;;10.20;56.00;;;;;;5061926;28;20537;-75
2023/12/28 03:47:28;;;;;;;5.43;3.90;;;10.20;54.10;;;;;;5055829;28;20475;-75
2023/12/28 03:50:15;;;;;;;4.10;3.07;;;10.10;53.30;;;;;;5047817;28;20469;-75
2023/12/28 03:53:01;;;;;;;6.40;3.40;;;10.10;54.50;;;;;;5052461;28;20520;-74
2023/12/28 03:55:47;;;;;;;3.50;2.90;;;10.00;55.90;;;;;;5052324;28;20469;-74
2023/12/28 03:58:32;;;;;;;8.20;3.23;;;10.10;55.90;;;;;;5051144;28;20578;-74
2023/12/28 04:01:19;;;;;;;5.13;2.93;;;10.00;64.10;;;;;;5057813;28;20482;-75
2023/12/28 04:04:05;;;;;;;4.73;3.30;;;10.00;69.30;;;;;;5051215;28;21635;-74
2023/12/28 04:06:52;;;;;;;5.93;3.60;;;9.90;69.70;;;;;;5051999;28;20440;-75
2023/12/28 04:09:38;;;;;;;6.43;3.87;;;9.90;71.90;;;;;;5062306;28;20424;-74
2023/12/28 04:12:23;;;;;;;6.50;3.80;;;9.90;77.90;;;;;;5048648;28;20556;-74
2023/12/28 04:15:10;;;;;;;5.13;2.93;;;9.80;92.60;;;;;;5058749;28;20517;-75
2023/12/28 04:17:56;;;;;;;4.30;3.70;;;9.80;99.10;;;;;;5050171;28;20729;-75
2023/12/28 04:20:44;;;;;;;6.10;3.43;;;9.70;99.90;;;;;;5052992;28;20491;-75
2023/12/28 04:23:31;;;;;;;4.33;3.13;;;9.70;99.30;;;;;;5052616;28;20965;-74
2023/12/28 04:26:19;;;;;;;5.47;3.13;;;9.60;99.90;;;;;;5043360;28;20457;-74
2023/12/28 04:29:04;;;;;;;5.80;3.50;;;9.50;99.90;;;;;;5042161;28;20478;-74
2023/12/28 04:31:50;;;;;;;6.17;3.13;;;9.40;99.90;;;;;;5044976;28;20442;-74
2023/12/28 04:34:37;;;;;;;5.37;3.30;;;9.30;99.90;;;;;;5039233;28;20442;-75
2023/12/28 04:37:22;;;;;;;12.00;3.30;;;9.20;99.90;;;;;;5047339;28;20451;-74
2023/12/28 04:40:10;;;;;;;4.53;3.43;;;9.20;99.90;;;;;;5049344;28;20472;-74
2023/12/28 04:42:56;;;;;;;8.27;3.13;;;9.00;99.90;;;;;;5047584;28;20461;-74
2023/12/28 04:45:42;;;;;;;6.13;3.40;;;9.00;99.90;;;;;;5040464;28;20807;-73
2023/12/28 04:48:28;;;;;;;8.80;3.30;;;9.10;99.90;;;;;;5053365;28;20443;-74
2023/12/28 04:51:13;;;;;;;4.47;3.17;;;9.10;99.90;;;;;;5053932;28;20458;-73
2023/12/28 04:53:59;;;;;;;3.87;2.80;;;9.20;99.90;;;;;;5050791;28;20455;-74
2023/12/28 04:56:46;;;;;;;5.57;3.10;;;9.30;99.90;;;;;;5062637;28;20576;-73
2023/12/28 04:59:32;;;;;;;4.70;2.83;;;9.50;99.90;;;;;;5050758;28;20440;-74
2023/12/28 05:02:17;;;;;;;6.53;3.17;;;9.60;99.90;;;;;;5052547;28;20493;-74
2023/12/28 05:05:03;;;;;;;5.10;3.17;;;9.60;99.90;;;;;;5058782;28;20424;-74
2023/12/28 05:07:49;;;;;;;3.93;2.60;;;9.60;99.90;;;;;;5048994;28;20600;-74
2023/12/28 05:10:35;;;;;;;9.93;2.80;;;9.70;99.90;;;;;;5054794;28;20549;-74
2023/12/28 05:13:22;;;;;;;4.77;2.60;;;9.70;99.90;;;;;;5045201;28;20465;-73
2023/12/28 05:16:07;;;;;;;4.40;2.50;;;9.70;99.90;;;;;;5047624;28;20493;-74
2023/12/28 05:18:53;;;;;;;4.30;2.97;;;9.80;99.90;;;;;;5047582;28;20462;-74
2023/12/28 05:21:38;;;;;;;4.60;2.90;;;9.80;99.90;;;;;;5050668;28;20969;-74
2023/12/28 05:24:24;;;;;;;7.80;3.40;;;9.80;99.90;;;;;;5056868;28;20448;-74
2023/12/28 05:27:10;;;;;;;4.63;2.93;;;9.90;99.90;;;;;;5053361;28;20960;-74
2023/12/28 05:29:57;;;;;;;6.33;2.77;;;9.90;99.90;;;;;;5040934;28;20998;-74
2023/12/28 05:32:42;;;;;;;5.30;2.97;;;9.90;99.90;;;;;;5050118;28;20416;-72
2023/12/28 05:35:28;;;;;;;5.47;3.43;;;9.90;99.90;;;;;;5058379;28;20453;-74
2023/12/28 05:38:14;;;;;;;6.03;3.00;;;9.90;99.90;;;;;;5053498;28;20955;-74
2023/12/28 05:41:00;;;;;;;5.07;2.80;;;10.00;99.90;;;;;;5049231;28;20479;-73
2023/12/28 05:43:45;;;;;;;3.43;2.40;;;10.00;99.90;;;;;;5054866;28;20444;-73
2023/12/28 05:46:33;;;;;;;6.10;2.90;;;9.90;99.90;;;;;;5054633;28;20473;-73
2023/12/28 05:49:18;;;;;;;3.40;2.67;;;10.00;99.90;;;;;;5056183;28;20456;-74
2023/12/28 05:52:05;;;;;;;3.00;2.40;;;10.00;99.90;;;;;;5052627;28;20819;-74
2023/12/28 05:54:51;;;;;;;3.13;2.67;;;10.00;99.90;;;;;;5057180;28;20576;-74
2023/12/28 05:57:36;;;;;;;3.73;2.63;;;9.90;99.90;;;;;;5056006;28;20954;-74
2023/12/28 06:00:22;;;;;;;3.00;2.47;;;9.90;99.90;;;;;;5050551;28;21075;-74
2023/12/28 06:03:09;;;;;;;6.33;2.57;;;9.80;99.90;;;;;;5044754;28;20446;-74
2023/12/28 06:05:55;;;;;;;3.87;2.60;;;9.90;99.90;;;;;;5048160;28;20560;-74
2023/12/28 06:08:40;;;;;;;3.70;2.77;;;9.90;99.90;;;;;;5058652;28;20445;-73
2023/12/28 06:11:26;;;;;;;3.87;2.67;;;9.90;99.90;;;;;;5051733;28;20523;-74
2023/12/28 06:14:12;;;;;;;6.13;2.80;;;9.90;99.90;;;;;;5045909;28;20501;-74
2023/12/28 06:16:57;;;;;;;5.23;3.00;;;9.80;99.90;;;;;;5038411;28;20961;-74
2023/12/28 06:19:44;;;;;;;10.53;2.73;;;9.80;99.90;;;;;;5046655;28;20461;-73
2023/12/28 06:22:30;;;;;;;4.97;2.77;;;9.80;99.90;;;;;;5050040;28;20453;-73
2023/12/28 06:25:16;;;;;;;3.27;2.27;;;9.80;99.90;;;;;;5055496;28;20449;-74
2023/12/28 06:28:01;;;;;;;3.80;2.20;;;9.80;99.90;;;;;;5045530;28;20446;-74
2023/12/28 06:30:47;;;;;;;4.10;2.90;;;9.80;99.90;;;;;;5052851;28;21070;-72
2023/12/28 06:33:33;;;;;;;5.33;2.30;;;9.80;99.90;;;;;;5048588;28;20420;-74
2023/12/28 06:36:20;;;;;;;8.20;3.10;;;9.80;99.90;;;;;;5052704;28;20908;-74
2023/12/28 06:39:05;;;;;;;5.10;2.90;;;9.80;99.90;;;;;;5056910;28;20572;-74
2023/12/28 06:41:51;;;;;;;6.50;2.60;;;9.70;99.90;;;;;;5050794;28;20469;-73
2023/12/28 06:44:37;;;;;;;5.43;2.87;;;9.70;99.90;;;;;;5052250;28;21046;-73
2023/12/28 06:47:23;;;;;;;5.90;2.93;;;9.70;99.90;;;;;;5049299;28;20438;-74
2023/12/28 06:50:09;;;;;;;6.23;2.93;;;9.70;99.90;;;;;;5043182;28;20473;-74
2023/12/28 06:52:57;;;;;;;4.40;2.57;;;9.70;99.90;;;;;;5048999;28;20560;-73
2023/12/28 06:55:42;;;;;;;4.40;3.10;;;9.70;99.90;;;;;;5050803;28;20444;-74
2023/12/28 06:58:28;;;;;;;5.53;2.77;;;9.70;99.90;;;;;;5061687;28;20795;-74
2023/12/28 07:01:14;;;;;;;5.83;3.23;;;9.80;99.90;;;;;;5055951;28;20491;-74
2023/12/28 07:04:00;;;;;;;5.93;3.00;;;9.80;99.90;;;;;;5052440;28;20513;-74
2023/12/28 07:06:45;;;;;;;4.07;2.87;;;9.80;99.90;;;;;;5056559;28;20417;-74
2023/12/28 07:09:32;;;;;;;6.57;3.40;;;9.80;99.90;;;;;;5061490;28;20447;-73
2023/12/28 07:12:20;;;;;;;4.50;2.90;;;9.80;99.90;;;;;;5055838;28;20821;-74
2023/12/28 07:15:06;;;;;;;3.27;2.37;;;9.80;99.90;;;;;;5054696;28;20757;-73
2023/12/28 07:17:52;;;;;;;12.13;2.70;;;9.80;99.90;;;;;;5055413;28;20452;-74
2023/12/28 07:20:38;;;;;;;4.20;2.97;;;9.80;99.90;;;;;;5065066;28;20488;-74
2023/12/28 07:23:24;;;;;;;3.03;2.30;;;9.80;99.90;;;;;;5052095;28;20451;-74
2023/12/28 07:26:10;;;;;;;3.80;2.40;;;9.80;99.90;;;;;;5049336;28;20988;-74
2023/12/28 07:28:56;;;;;;;5.57;3.23;;;9.80;99.90;;;;;;5056878;28;20477;-72
2023/12/28 07:31:42;;;;;;;4.27;2.60;;;9.80;99.90;;;;;;5045959;28;20519;-74
2023/12/28 07:34:27;;;;;;;3.37;2.63;;;9.90;99.90;;;;;;5056954;28;20585;-74
2023/12/28 07:37:13;;;;;;;4.37;2.80;;;9.80;99.90;;;;;;5053278;28;20446;-74
2023/12/28 07:39:59;;;;;;;5.10;2.60;;;9.90;99.90;;;;;;5046683;28;20597;-74
2023/12/28 07:42:46;;;;;;;4.77;2.50;;;9.80;99.90;;;;;;5048093;28;20561;-74
2023/12/28 07:45:32;;;;;;;4.13;2.53;;;9.80;99.90;;;;;;5058409;28;21044;-74
2023/12/28 07:48:17;;;;;;;4.60;2.77;;;9.90;99.90;;;;;;5058389;28;20450;-73
2023/12/28 07:51:05;;;;;;;5.97;2.80;;;9.90;99.90;;;;;;5051672;28;20465;-74
2023/12/28 07:53:51;;;;;;;6.13;2.80;;;10.00;99.90;;;;;;5050721;28;20447;-74
2023/12/28 07:56:37;;;;;;;4.23;3.00;;;10.00;99.90;;;;;;5054965;28;20497;-73
2023/12/28 07:59:24;;;;;;;3.90;2.43;;;9.90;99.90;;;;;;5050322;28;20421;-73
2023/12/28 08:02:09;;;;;;;4.63;2.93;;;9.90;99.90;;;;;;5052499;28;20583;-74
2023/12/28 08:04:55;;;;;;;4.50;2.50;;;9.90;99.90;;;;;;5053361;28;20421;-74
2023/12/28 08:07:40;;;;;;;4.60;2.93;;;9.90;99.90;;;;;;5052310;28;20441;-74
2023/12/28 08:10:26;;;;;;;4.87;3.43;;;9.90;99.90;;;;;;5053076;28;20467;-74
2023/12/28 08:13:12;;;;;;;4.20;3.00;;;9.90;99.90;;;;;;5055381;28;20446;-73
2023/12/28 08:15:59;;;;;;;3.73;2.60;;;9.90;99.90;;;;;;5045461;28;20552;-74
2023/12/28 08:18:44;;;;;;;4.00;2.90;;;9.90;99.90;;;;;;5044827;28;20447;-74
2023/12/28 08:21:30;;;;;;;4.73;2.97;;;9.90;99.90;;;;;;5043577;28;20481;-74
2023/12/28 08:24:16;;;;;;;4.33;2.77;;;10.00;99.90;;;;;;5052492;28;20434;-73
2023/12/28 08:27:02;;;;;;;4.40;2.73;;;10.00;99.90;;;;;;5055019;28;20584;-74
2023/12/28 08:29:48;;;;;;;3.53;2.30;;;10.00;99.90;;;;;;5058490;28;20434;-73
2023/12/28 08:32:35;;;;;;;3.90;2.60;;;10.00;99.90;;;;;;5063132;28;20891;-73
2023/12/28 08:35:20;;;;;;;5.93;2.53;;;10.00;99.90;;;;;;5047953;28;20497;-73
2023/12/28 08:38:07;;;;;;;6.70;2.87;;;10.00;99.90;;;;;;5040880;28;20454;-74
2023/12/28 08:40:52;;;;;;;3.90;3.10;;;10.10;99.90;;;;;;5045864;28;20513;-73
2023/12/28 08:43:38;;;;;;;4.17;3.00;;;10.10;99.90;;;;;;5057581;28;20446;-73
2023/12/28 08:46:24;;;;;;;4.53;2.63;;;10.10;99.90;;;;;;5052056;28;21096;-74
2023/12/28 08:49:11;;;;;;;5.50;3.03;;;10.10;99.90;;;;;;5062673;28;20430;-74
2023/12/28 08:51:57;;;;;;;6.27;2.80;;;10.10;99.90;;;;;;5055355;28;20424;-74
2023/12/28 08:54:42;;;;;;;4.87;3.40;;;10.10;99.90;;;;;;5040109;28;20425;-74
2023/12/28 08:57:29;;;;;;;14.10;3.50;;;10.10;99.90;;;;;;5050034;28;20533;-74
2023/12/28 09:00:16;;;;;;;6.07;3.40;;;10.10;99.90;;;;;;5064794;28;20518;-73
2023/12/28 09:03:02;;;;;;;3.73;2.83;;;10.10;99.90;;;;;;5061716;28;20616;-74
2023/12/28 09:05:49;;;;;;;7.07;3.43;;;10.10;99.90;;;;;;5062063;28;20428;-74
2023/12/28 09:08:35;;;;;;;7.03;4.97;;;10.10;99.90;;;;;;5066859;28;20575;-73
2023/12/28 09:11:21;;;;;;;10.07;3.33;;;10.10;99.90;;;;;;5064911;28;20453;-73
2023/12/28 09:14:06;;;;;;;4.33;2.87;;;10.10;99.90;;;;;;5048915;28;20399;-72
2023/12/28 09:16:52;;;;;;;3.90;2.63;;;10.00;99.90;;;;;;5068059;28;20466;-74
2023/12/28 09:19:38;;;;;;;3.87;2.70;;;10.10;99.90;;;;;;5062750;28;20407;-74
2023/12/28 09:22:25;;;;;;;3.60;2.90;;;10.10;99.90;;;;;;5066668;28;20531;-74
2023/12/28 09:25:11;;;;;;;5.23;2.97;;;10.10;99.90;;;;;;5061591;28;20413;-73
2023/12/28 09:27:56;;;;;;;7.67;2.80;;;10.10;99.90;;;;;;5063335;28;20868;-74
2023/12/28 09:30:42;;;;;;;5.67;3.13;;;10.10;99.90;;;;;;5066612;28;20805;-74
2023/12/28 09:33:28;;;;;;;3.97;3.00;;;10.20;99.90;;;;;;5059201;28;20432;-74
2023/12/28 09:36:14;;;;;;;4.60;3.37;;;10.20;99.90;;;;;;5065267;28;20434;-73
2023/12/28 09:39:01;;;;;;;4.00;2.90;;;10.20;99.90;;;;;;5066733;28;20437;-73
2023/12/28 09:41:55;;;;;;;6.33;3.37;;;10.20;99.90;;;;;;5069491;28;20441;-73
2023/12/28 09:44:44;;;;;;;4.70;2.83;;;10.20;99.90;;;;;;5053963;28;20788;-74
2023/12/28 09:47:30;;;;;;;6.40;3.00;;;10.20;99.90;;;;;;5058171;28;20454;-73
2023/12/28 09:50:18;;;;;;;3.73;2.60;;;10.20;99.90;;;;;;5061750;28;21078;-73
2023/12/28 09:53:04;;;;;;;3.63;2.40;;;10.20;99.90;;;;;;5053834;28;20457;-74
2023/12/28 09:55:52;;;;;;;6.00;3.30;;;10.20;99.90;;;;;;5068805;28;20577;-73
2023/12/28 09:58:38;;;;;;;4.80;2.30;;;10.20;99.90;;;;;;5059612;28;20449;-73
2023/12/28 10:01:24;;;;;;;4.10;2.73;;;10.20;99.90;;;;;;5061140;28;21001;-74
2023/12/28 10:04:10;;;;;;;5.70;2.77;;;10.20;99.90;;;;;;5060668;28;20398;-73
2023/12/28 10:06:55;;;;;;;5.07;3.00;;;10.30;99.90;;;;;;5057437;28;20425;-73
2023/12/28 10:09:41;;;;;;;6.83;3.00;;;10.30;99.90;;;;;;5067481;28;20399;-74
2023/12/28 10:12:28;;;;;;;5.43;2.97;;;10.30;99.90;;;;;;5066058;28;20938;-73
2023/12/28 10:15:14;;;;;;;3.27;2.63;;;10.30;99.90;;;;;;5061593;28;20808;-73
2023/12/28 10:18:01;;;;;;;5.33;2.97;;;10.30;99.90;;;;;;5055030;28;20454;-73
2023/12/28 10:20:50;;;;;;;3.80;2.63;;;10.30;99.90;;;;;;5061786;28;20472;-74
2023/12/28 10:23:36;;;;;;;4.00;2.60;;;10.30;99.90;;;;;;5068779;28;20438;-73
2023/12/28 10:26:22;;;;;;;4.40;3.17;;;10.20;99.90;;;;;;5067215;28;20540;-73
2023/12/28 10:29:09;;;;;;;5.13;3.23;;;10.20;99.90;;;;;;5068938;28;20428;-74
2023/12/28 10:31:55;;;;;;;5.60;2.97;;;10.20;99.90;;;;;;5069031;28;20449;-73
2023/12/28 10:34:40;;;;;;;8.13;3.93;;;10.20;99.90;;;;;;5067794;28;20466;-73
2023/12/28 10:37:28;;;;;;;4.73;2.90;;;10.30;99.90;;;;;;5057494;28;20418;-74
2023/12/28 10:40:15;;;;;;;5.77;3.40;;;10.30;99.90;;;;;;5065789;28;20423;-73
2023/12/28 10:43:03;;;;;;;3.60;3.00;;;10.30;99.90;;;;;;5059358;28;21194;-74
2023/12/28 10:45:52;;;;;;;4.53;3.00;;;10.30;99.90;;;;;;5057055;28;20430;-74
2023/12/28 10:48:42;;;;;;;6.17;2.80;;;10.30;99.90;;;;;;5054631;28;20429;-74
2023/12/28 10:51:29;;;;;;;3.50;2.77;;;10.40;99.90;;;;;;5053036;28;20428;-74
2023/12/28 10:54:34;;;;;;;7.03;2.83;;;10.40;99.90;;;;;;5051696;28;20934;-73
2023/12/28 10:57:29;;;;;;;3.90;3.00;;;10.40;99.90;;;;;;5058813;28;20772;-74
2023/12/28 11:00:18;;;;;;;4.60;3.07;;;10.40;99.90;;;;;;5066060;28;20554;-73
2023/12/28 11:03:09;;;;;;;4.50;2.70;;;10.50;99.90;;;;;;5068851;28;20477;-74
2023/12/28 11:05:57;;;;;;;6.23;3.03;;;10.50;99.90;;;;;;5069567;28;20471;-74
2023/12/28 11:08:46;;;;;;;7.10;2.97;;;10.50;99.90;;;;;;5065913;28;20485;-74
2023/12/28 11:11:33;;;;;;;4.30;3.20;;;10.60;99.90;;;;;;5061404;28;20959;-74
2023/12/28 11:14:19;;;;;;;6.67;3.67;;;10.50;99.90;;;;;;5068433;28;20533;-74
2023/12/28 11:17:05;;;;;;;4.47;2.80;;;10.60;99.90;;;;;;5069463;28;20449;-73
2023/12/28 11:19:53;;;;;;;4.10;2.80;;;10.60;99.90;;;;;;5071434;28;20400;-73
2023/12/28 11:22:40;;;;;;;4.73;2.80;;;10.60;99.90;;;;;;5065291;28;20466;-73
2023/12/28 11:25:32;;;;;;;7.87;3.00;;;10.50;99.90;;;;;;5073173;28;20408;-73
2023/12/28 11:28:17;;;;;;;4.00;2.60;;;10.50;99.90;;;;;;5072412;28;20542;-74
2023/12/28 11:31:03;;;;;;;7.13;2.77;;;10.50;99.90;;;;;;5068053;28;21016;-73
2023/12/28 11:33:53;;;;;;;4.40;2.97;;;10.50;99.90;;;;;;5053029;28;20422;-74
2023/12/28 11:36:47;;;;;;;4.23;3.00;;;10.50;99.90;;;;;;5056699;28;20405;-73
2023/12/28 11:39:34;;;;;;;8.10;3.07;;;10.50;99.90;;;;;;5053514;28;20434;-74
2023/12/28 11:42:22;;;;;;;4.90;3.10;;;10.60;99.90;;;;;;5045317;28;20464;-73
2023/12/28 11:45:08;;;;;;;5.03;2.90;;;10.50;99.90;;;;;;5059151;28;20409;-74
2023/12/28 11:48:01;;;;;;;5.87;3.13;;;10.50;99.90;;;;;;5049971;28;20458;-74
2023/12/28 11:50:46;;;;;;;8.73;2.80;;;10.50;99.90;;;;;;5039090;28;20847;-73
2023/12/28 11:53:35;;;;;;;5.07;2.97;;;10.60;99.90;;;;;;5051035;28;20407;-73
2023/12/28 11:56:20;;;;;;;10.27;2.70;;;10.60;99.90;;;;;;5042098;28;20991;-74
2023/12/28 11:59:08;;;;;;;4.50;2.47;;;10.60;99.90;;;;;;5050118;28;20946;-74
2023/12/28 12:01:54;;;;;;;4.33;2.47;;;10.60;99.90;;;;;;5040568;28;20425;-74
2023/12/28 12:04:39;;;;;;;4.87;2.47;;;10.60;99.90;;;;;;5060973;28;20436;-74
2023/12/28 12:07:25;;;;;;;3.87;2.57;;;10.50;99.90;;;;;;5037566;28;20435;-74
2023/12/28 12:10:16;;;;;;;3.70;2.57;;;10.50;99.90;;;;;;5034034;28;20808;-73
2023/12/28 12:13:03;;;;;;;5.80;3.00;;;10.40;99.90;;;;;;5040314;28;20434;-73
2023/12/28 12:15:52;;;;;;;3.73;2.30;;;10.40;99.90;;;;;;5054300;28;20439;-74
2023/12/28 12:18:37;;;;;;;5.40;3.10;;;10.50;99.90;;;;;;5057993;28;20432;-74
2023/12/28 12:21:24;;;;;;;5.10;2.70;;;10.50;99.90;;;;;;5042856;28;20470;-73
2023/12/28 12:24:11;;;;;;;5.87;2.80;;;10.50;99.90;;;;;;5051387;28;20600;-74
2023/12/28 12:26:58;;;;;;;5.00;2.60;;;10.50;99.90;;;;;;5035006;28;20434;-73
2023/12/28 12:29:43;;;;;;;5.50;3.20;;;10.50;99.90;;;;;;5034772;28;20402;-73
2023/12/28 12:32:29;;;;;;;4.33;2.40;;;10.50;99.90;;;;;;5058597;28;20439;-73
2023/12/28 12:35:16;;;;;;;7.43;2.80;;;10.50;99.90;;;;;;5042161;28;20460;-73
2023/12/28 12:38:02;;;;;;;7.90;3.10;;;10.50;99.90;;;;;;5051149;28;20913;-72
2023/12/28 12:40:51;;;;;;;3.70;2.60;;;10.50;99.90;;;;;;5044049;28;20525;-74
2023/12/28 12:43:38;;;;;;;5.43;2.70;;;10.50;99.90;;;;;;5051749;28;20478;-74
2023/12/28 12:46:23;;;;;;;6.37;3.00;;;10.40;99.90;;;;;;5058650;28;20417;-74
2023/12/28 12:49:09;;;;;;;6.77;2.40;;;10.30;99.90;;;;;;5058591;28;20409;-73
2023/12/28 12:51:55;;;;;;;5.03;2.90;;;10.30;99.90;;;;;;5049979;28;20454;-74
2023/12/28 12:54:41;;;;;;;5.27;2.70;;;10.30;99.90;;;;;;5047585;28;20455;-74
2023/12/28 12:57:27;;;;;;;4.90;2.63;;;10.20;99.90;;;;;;5035819;28;20473;-74
2023/12/28 13:00:14;;;;;;;3.30;2.70;;;10.20;99.90;;;;;;5051687;28;20952;-73
2023/12/28 13:03:00;;;;;;;6.80;2.50;;;10.10;99.90;;;;;;5047962;28;20473;-73
2023/12/28 13:05:46;;;;;;;4.23;2.47;;;10.10;99.90;;;;;;5035751;28;20972;-73
2023/12/28 13:08:32;;;;;;;4.67;2.50;;;10.20;99.90;;;;;;5067621;28;20432;-74
2023/12/28 13:11:17;;;;;;;3.83;2.60;;;10.20;99.90;;;;;;5054506;28;21007;-74
2023/12/28 13:14:04;;;;;;;3.87;2.30;;;10.20;99.90;;;;;;5052170;28;20405;-74
2023/12/28 13:16:54;;;;;;;4.80;2.90;;;10.20;99.90;;;;;;5051050;28;20443;-73
2023/12/28 13:19:39;;;;;;;4.93;2.33;;;10.10;99.90;;;;;;5043109;28;20433;-74
2023/12/28 13:22:26;;;;;;;3.53;2.63;;;10.10;99.90;;;;;;5049981;28;20406;-75
2023/12/28 13:25:11;;;;;;;3.90;2.23;;;10.10;99.90;;;;;;5047766;28;20447;-74
2023/12/28 13:27:57;;;;;;;4.90;2.10;;;10.10;99.90;;;;;;5034031;28;20826;-74
2023/12/28 13:30:43;;;;;;;3.83;2.33;;;10.10;99.90;;;;;;5052949;28;20459;-74
2023/12/28 13:33:30;;;;;;;3.90;2.63;;;10.10;99.90;;;;;;5050854;28;20430;-73
2023/12/28 13:36:18;;;;;;;3.90;2.67;;;10.00;99.90;;;;;;5056837;28;20781;-74
2023/12/28 13:39:05;;;;;;;3.77;2.60;;;10.00;99.90;;;;;;5044280;28;20433;-74
2023/12/28 13:41:50;;;;;;;4.70;3.03;;;10.10;99.90;;;;;;5056363;28;20816;-74
2023/12/28 13:44:36;;;;;;;4.10;2.30;;;10.10;99.90;;;;;;5043538;28;20477;-74
2023/12/28 13:47:22;;;;;;;2.67;2.27;;;10.00;99.90;;;;;;5055142;28;20437;-74
2023/12/28 13:50:10;;;;;;;3.73;2.20;;;10.00;99.90;;;;;;5060194;28;20501;-74
2023/12/28 13:52:56;;;;;;;2.67;2.23;;;10.00;99.90;;;;;;5046090;28;20424;-74
2023/12/28 13:55:42;;;;;;;3.70;2.73;;;10.00;99.90;;;;;;5061647;28;20438;-74
2023/12/28 13:58:27;;;;;;;4.23;2.77;;;10.00;99.90;;;;;;5047442;28;20445;-74
2023/12/28 14:01:14;;;;;;;3.33;2.50;;;10.10;99.90;;;;;;5064618;28;20450;-73
2023/12/28 14:03:59;;;;;;;3.70;2.73;;;10.00;99.90;;;;;;5045897;28;20469;-74
2023/12/28 14:06:46;;;;;;;4.00;3.03;;;10.10;99.90;;;;;;5046022;28;20454;-74
2023/12/28 14:09:32;;;;;;;5.53;3.20;;;10.10;99.90;;;;;;5043377;28;20993;-73
2023/12/28 14:12:18;;;;;;;3.30;2.70;;;10.00;99.90;;;;;;5051141;28;20420;-73
2023/12/28 14:15:05;;;;;;;4.23;2.90;;;10.00;99.90;;;;;;5043262;28;20515;-73
2023/12/28 14:17:50;;;;;;;4.43;2.87;;;10.00;99.90;;;;;;5046287;28;20533;-73
2023/12/28 14:20:37;;;;;;;4.20;3.10;;;10.00;99.90;;;;;;5040911;28;20806;-73
2023/12/28 14:23:25;;;;;;;3.60;3.00;;;10.00;99.90;;;;;;5044365;28;20470;-73
2023/12/28 14:26:14;;;;;;;6.80;3.00;;;10.00;99.90;;;;;;5043913;28;20429;-73
2023/12/28 14:29:03;;;;;;;6.23;3.17;;;10.00;99.90;;;;;;5042277;28;20961;-74
2023/12/28 14:31:48;;;;;;;4.00;2.80;;;10.00;99.90;;;;;;5041190;28;20561;-73